Time;durP1;ratioP1;P1;durP2;ratioP2;P2;SDS_P1;SDS_P2;PMS_P1;PMS_P2;Temp;Humidity;BMP_temperature;BMP_pressure;BME280_temperature;BME280_humidity;BME280_pressure;Samples;Min_cycle;Max_cycle;Signal;HPM_P1;HPM_P2
2021/10/26 00:02:35;;;;;;;31.02;22.52;;;;;;;11.41;100.00;101681.50;10631135;27;20043;-60
2021/10/26 00:07:37;;;;;;;33.55;22.45;;;;;;;11.61;100.00;101686.63;10631070;27;20130;-57
2021/10/26 00:12:39;;;;;;;33.72;24.50;;;;;;;11.39;100.00;101683.34;10630791;27;20510;-59
2021/10/26 00:17:42;;;;;;;32.40;22.95;;;;;;;11.22;100.00;101682.34;10630633;27;20043;-58
2021/10/26 00:22:44;;;;;;;33.92;22.02;;;;;;;11.38;100.00;101685.13;10630207;27;20039;-58
2021/10/26 00:27:46;;;;;;;31.13;24.08;;;;;;;11.46;100.00;101685.59;10630311;27;20484;-57
2021/10/26 00:32:49;;;;;;;27.95;21.35;;;;;;;11.60;100.00;101697.19;10629904;27;20058;-58
2021/10/26 00:37:51;;;;;;;30.67;20.38;;;;;;;11.45;100.00;101696.19;10630360;27;20043;-58
2021/10/26 00:42:53;;;;;;;32.47;22.80;;;;;;;11.58;100.00;101701.69;10629171;27;20057;-59
2021/10/26 00:47:56;;;;;;;33.15;25.05;;;;;;;11.50;100.00;101709.94;10611335;27;20058;-59
2021/10/26 00:52:58;;;;;;;37.95;25.00;;;;;;;11.56;100.00;101700.91;10627829;27;20399;-57
2021/10/26 00:58:01;;;;;;;32.13;24.10;;;;;;;11.58;100.00;101705.13;10629104;27;20198;-60
2021/10/26 01:03:04;;;;;;;34.40;24.75;;;;;;;11.66;100.00;101702.16;10610732;27;20055;-58
2021/10/26 01:08:07;;;;;;;38.40;28.67;;;;;;;11.43;100.00;101708.50;10628541;27;20049;-59
2021/10/26 01:13:09;;;;;;;32.33;23.05;;;;;;;11.60;100.00;101719.06;10628835;27;20047;-57
2021/10/26 01:18:11;;;;;;;34.10;21.83;;;;;;;11.70;100.00;101719.44;10610212;27;20062;-59
2021/10/26 01:23:14;;;;;;;39.85;27.38;;;;;;;11.48;100.00;101720.47;10610255;27;20043;-58
2021/10/26 01:28:17;;;;;;;36.45;27.60;;;;;;;11.41;100.00;101705.94;10628096;27;20047;-58
2021/10/26 01:33:20;;;;;;;38.60;25.55;;;;;;;11.55;100.00;101721.06;10627679;27;20058;-58
2021/10/26 01:38:26;;;;;;;36.17;26.20;;;;;;;11.52;100.00;101716.78;10627199;27;20510;-59
2021/10/26 01:43:28;;;;;;;43.13;30.95;;;;;;;11.80;100.00;101725.13;10626885;27;20066;-57
2021/10/26 01:48:30;;;;;;;33.42;24.17;;;;;;;11.62;100.00;101726.84;10627179;27;20058;-58
2021/10/26 01:53:33;;;;;;;37.80;25.35;;;;;;;11.76;100.00;101726.19;10626978;27;20047;-59
2021/10/26 01:58:35;;;;;;;48.03;30.75;;;;;;;11.37;100.00;101709.63;10627332;27;20058;-57
2021/10/26 02:03:38;;;;;;;39.45;25.52;;;;;;;11.53;100.00;101729.00;10626023;27;20050;-58
2021/10/26 02:08:41;;;;;;;34.72;26.58;;;;;;;11.52;100.00;101735.13;10626529;27;20043;-58
2021/10/26 02:13:43;;;;;;;45.63;31.17;;;;;;;11.40;100.00;101717.38;10626156;27;20163;-58
2021/10/26 02:18:45;;;;;;;38.75;27.15;;;;;;;11.44;100.00;101718.06;10625805;27;20497;-58
2021/10/26 02:23:48;;;;;;;36.60;26.45;;;;;;;11.56;100.00;101719.28;10625428;27;20050;-57
2021/10/26 02:28:50;;;;;;;43.78;27.85;;;;;;;11.55;100.00;101726.28;10625386;27;20049;-59
2021/10/26 02:33:53;;;;;;;49.03;28.73;;;;;;;11.51;100.00;101720.31;10625168;27;20058;-58
2021/10/26 02:38:55;;;;;;;45.30;33.03;;;;;;;11.45;100.00;101723.25;10625278;27;20055;-57
2021/10/26 02:43:58;;;;;;;47.75;32.97;;;;;;;11.35;100.00;101721.97;10624903;27;20053;-58
2021/10/26 02:49:00;;;;;;;37.58;26.17;;;;;;;11.47;100.00;101736.28;10625024;27;20419;-59
2021/10/26 02:54:05;;;;;;;45.33;29.40;;;;;;;11.42;100.00;101733.88;10624623;27;20513;-57
2021/10/26 02:59:08;;;;;;;47.72;32.60;;;;;;;11.36;100.00;101734.13;10624661;27;20126;-57
2021/10/26 03:04:10;;;;;;;51.80;34.47;;;;;;;11.30;100.00;101731.81;10624282;27;20070;-58
2021/10/26 03:09:13;;;;;;;45.50;30.55;;;;;;;11.37;100.00;101725.38;10624177;28;20055;-60
2021/10/26 03:14:15;;;;;;;48.50;32.42;;;;;;;11.28;100.00;101728.38;10624578;27;20054;-58
2021/10/26 03:19:17;;;;;;;44.78;30.08;;;;;;;11.22;100.00;101732.16;10632323;27;20051;-59
2021/10/26 03:24:19;;;;;;;44.58;32.97;;;;;;;11.21;100.00;101735.69;10632929;27;20050;-58
2021/10/26 03:29:22;;;;;;;40.80;29.70;;;;;;;11.24;100.00;101735.53;10632575;27;20062;-55
2021/10/26 03:34:24;;;;;;;55.80;37.67;;;;;;;10.99;100.00;101740.19;10632369;27;20548;-59
2021/10/26 03:39:26;;;;;;;41.30;30.95;;;;;;;11.18;100.00;101738.47;10631858;27;20390;-57
2021/10/26 03:44:29;;;;;;;57.85;36.83;;;;;;;11.11;100.00;101739.63;10632065;27;20490;-58
2021/10/26 03:49:31;;;;;;;50.13;34.53;;;;;;;11.11;100.00;101742.25;10631728;27;20047;-57
2021/10/26 03:54:34;;;;;;;50.70;35.63;;;;;;;11.30;100.00;101740.53;10631434;27;20058;-57
2021/10/26 03:59:37;;;;;;;59.30;39.85;;;;;;;11.11;100.00;101750.13;10631296;27;20043;-58
2021/10/26 04:10:58;;;;;;;40.42;29.23;;;;;;;11.22;100.00;101752.28;10630915;27;20047;-59
2021/10/26 04:16:00;;;;;;;65.63;38.88;;;;;;;11.02;100.00;101750.53;10631327;27;20406;-58
2021/10/26 04:21:03;;;;;;;47.88;30.92;;;;;;;11.04;100.00;101754.78;10630644;27;20047;-59
2021/10/26 04:26:07;;;;;;;55.67;35.13;;;;;;;10.89;100.00;101758.94;10630219;27;20043;-58
2021/10/26 04:31:09;;;;;;;42.80;30.25;;;;;;;11.12;100.00;101757.91;10630221;27;20121;-57
2021/10/26 04:36:12;;;;;;;49.90;29.52;;;;;;;11.18;100.00;101761.19;10629839;27;20066;-58
2021/10/26 04:41:14;;;;;;;58.30;34.58;;;;;;;11.06;100.00;101771.31;10629944;27;20057;-56
2021/10/26 04:46:17;;;;;;;50.28;32.20;;;;;;;10.92;100.00;101782.38;10629635;27;20047;-57
2021/10/26 04:51:19;;;;;;;53.40;33.67;;;;;;;10.90;100.00;101788.63;10629363;27;20043;-59
2021/10/26 04:56:21;;;;;;;49.20;31.33;;;;;;;10.96;100.00;101793.56;10629827;27;20047;-57
2021/10/26 05:01:24;;;;;;;63.55;36.20;;;;;;;10.95;100.00;101792.72;10628895;27;20047;-58
2021/10/26 05:06:26;;;;;;;51.85;36.83;;;;;;;11.02;100.00;101793.31;10629125;27;20046;-57
2021/10/26 05:11:29;;;;;;;61.88;37.08;;;;;;;10.98;100.00;101789.13;10628635;27;20039;-57
2021/10/26 05:16:32;;;;;;;64.38;37.92;;;;;;;10.82;100.00;101780.22;10628886;27;20054;-57
2021/10/26 05:21:34;;;;;;;64.70;37.70;;;;;;;11.06;100.00;101792.28;10627975;27;20043;-57
2021/10/26 05:26:37;;;;;;;54.30;34.15;;;;;;;10.92;100.00;101799.88;10628348;27;20039;-58
2021/10/26 05:31:40;;;;;;;65.63;37.55;;;;;;;10.96;100.00;101796.19;10627765;27;20047;-58
2021/10/26 05:36:42;;;;;;;51.67;32.45;;;;;;;11.06;100.00;101807.13;10627730;27;20043;-57
2021/10/26 05:41:46;;;;;;;53.60;33.15;;;;;;;10.84;100.00;101805.44;10626814;27;20070;-58
2021/10/26 05:46:48;;;;;;;59.72;33.70;;;;;;;10.91;100.00;101812.13;10627065;27;20043;-58
2021/10/26 05:51:51;;;;;;;60.85;33.42;;;;;;;10.92;100.00;101807.72;10626542;27;20047;-57
2021/10/26 05:56:53;;;;;;;60.55;34.13;;;;;;;10.80;100.00;101819.59;10626943;27;20388;-57
2021/10/26 06:01:55;;;;;;;62.13;36.35;;;;;;;10.83;100.00;101831.72;10626299;27;20039;-59
2021/10/26 06:06:58;;;;;;;56.22;32.80;;;;;;;10.74;100.00;101846.03;10626738;27;20046;-57
2021/10/26 06:12:03;;;;;;;66.25;39.35;;;;;;;10.64;100.00;101847.31;10626024;27;20399;-59
2021/10/26 06:17:05;;;;;;;59.53;36.22;;;;;;;10.70;100.00;101849.69;10626234;27;20069;-57
2021/10/26 06:22:08;;;;;;;65.90;39.47;;;;;;;10.68;100.00;101855.00;10625467;27;20129;-59
2021/10/26 06:27:10;;;;;;;50.58;32.90;;;;;;;10.86;100.00;101868.25;10625494;27;20479;-59
2021/10/26 06:32:12;;;;;;;54.00;30.67;;;;;;;10.87;100.00;101875.19;10625001;27;20494;-56
2021/10/26 06:37:36;;;;;;;59.47;34.47;;;;;;;10.86;100.00;101870.84;10626110;27;20062;-59
2021/10/26 06:42:39;;;;;;;58.10;33.50;;;;;;;10.77;100.00;101870.31;10625285;27;20080;-57
2021/10/26 06:47:43;;;;;;;59.15;33.28;;;;;;;10.86;100.00;101868.25;10624908;27;20047;-58
2021/10/26 06:52:45;;;;;;;60.10;34.83;;;;;;;10.87;100.00;101870.78;10623569;27;20047;-57
2021/10/26 06:57:49;;;;;;;66.63;37.22;;;;;;;10.94;100.00;101882.75;10624706;27;20050;-57
2021/10/26 07:02:54;;;;;;;69.82;38.08;;;;;;;10.74;100.00;101882.69;10624562;27;20047;-58
2021/10/26 07:07:56;;;;;;;68.50;37.83;;;;;;;10.71;100.00;101893.31;10624661;28;20039;-56
2021/10/26 07:12:59;;;;;;;51.58;32.60;;;;;;;10.89;100.00;101900.44;10624113;28;20512;-59
2021/10/26 07:18:01;;;;;;;50.95;30.55;;;;;;;11.03;100.00;101893.72;10624118;28;20056;-58
2021/10/26 07:23:04;;;;;;;59.90;32.92;;;;;;;10.78;100.00;101907.88;10623973;28;20047;-58
2021/10/26 07:28:06;;;;;;;49.28;30.20;;;;;;;10.94;100.00;101918.56;10624229;28;20043;-59
2021/10/26 07:33:19;;;;;;;50.50;31.40;;;;;;;10.92;100.00;101925.63;10624040;28;20051;-56
2021/10/26 07:38:35;;;;;;;57.85;31.75;;;;;;;10.97;100.00;101944.66;10624372;28;20047;-57
2021/10/26 07:43:38;;;;;;;48.33;30.77;;;;;;;11.01;100.00;101940.13;10623192;28;20086;-58
2021/10/26 07:48:41;;;;;;;62.95;34.97;;;;;;;10.84;100.00;101946.06;10623459;28;20487;-64
2021/10/26 07:53:43;;;;;;;52.22;28.23;;;;;;;10.95;100.00;101936.00;10623442;28;20047;-58
2021/10/26 07:58:46;;;;;;;48.03;27.80;;;;;;;11.21;100.00;101948.00;10623227;28;20057;-57
2021/10/26 08:03:50;;;;;;;51.95;29.25;;;;;;;11.11;100.00;101954.56;10628507;27;20051;-59
2021/10/26 08:08:52;;;;;;;40.22;26.08;;;;;;;11.22;100.00;101951.50;10631125;27;20054;-58
2021/10/26 08:13:55;;;;;;;53.92;28.20;;;;;;;11.22;100.00;101946.25;10631455;27;20047;-59
2021/10/26 08:18:58;;;;;;;46.55;27.40;;;;;;;11.30;100.00;101937.16;10612738;27;20051;-58
2021/10/26 08:24:01;;;;;;;43.70;25.33;;;;;;;11.83;100.00;101930.47;10630087;27;20043;-59
2021/10/26 08:29:41;;;;;;;53.33;31.67;;;;;;;11.50;100.00;101938.09;10630491;27;20047;-59
2021/10/26 08:39:43;;;;;;;43.90;28.33;;;;;;;11.80;100.00;101949.00;10630017;27;20047;-58
2021/10/26 08:44:46;;;;;;;42.67;27.70;;;;;;;11.90;100.00;101933.69;10611877;27;20047;-58
2021/10/26 08:49:51;;;;;;;55.28;31.60;;;;;;;11.82;100.00;101941.06;10611547;27;20039;-57
2021/10/26 08:54:54;;;;;;;63.90;37.42;;;;;;;11.56;100.00;101937.81;10629340;27;20050;-59
2021/10/26 09:00:00;;;;;;;53.30;32.58;;;;;;;12.00;100.00;101934.16;10628996;27;20042;-58
2021/10/26 09:05:11;;;;;;;52.28;33.88;;;;;;;12.64;100.00;101925.91;10629062;27;20066;-59
2021/10/26 09:10:15;;;;;;;51.65;33.20;;;;;;;12.54;100.00;101927.28;10628916;27;20047;-59
2021/10/26 09:20:49;;;;;;;41.90;28.33;;;;;;;12.52;100.00;101925.63;10628736;27;20054;-58
2021/10/26 09:25:57;;;;;;;40.53;26.30;;;;;;;12.58;100.00;101936.72;10628207;27;20047;-58
2021/10/26 09:31:05;;;;;;;39.50;21.33;;;;;;;12.80;100.00;101936.53;10628423;27;20051;-58
2021/10/26 09:36:28;;;;;;;35.85;20.58;;;;;;;12.24;100.00;101937.47;10627678;27;20047;-58
2021/10/26 09:41:36;;;;;;;26.67;15.85;;;;;;;12.62;100.00;101950.53;10627359;27;20058;-57
2021/10/26 09:46:40;;;;;;;29.67;16.92;;;;;;;12.66;100.00;101959.13;10627242;27;20054;-58
2021/10/26 09:51:43;;;;;;;26.40;17.35;;;;;;;12.39;100.00;101954.25;10608940;27;20047;-58
2021/10/26 09:57:11;;;;;;;21.98;15.88;;;;;;;12.51;100.00;101956.31;10627042;27;20055;-58
2021/10/26 10:02:19;;;;;;;24.65;15.35;;;;;;;12.62;100.00;101948.78;10626611;27;20061;-58
2021/10/26 10:07:39;;;;;;;26.27;16.70;;;;;;;12.65;100.00;101963.53;10626366;27;20047;-57
2021/10/26 10:12:44;;;;;;;22.20;15.38;;;;;;;12.92;100.00;101956.09;10626108;27;20050;-57
2021/10/26 10:17:47;;;;;;;25.40;16.08;;;;;;;12.82;100.00;101953.06;10626016;27;20138;-58
2021/10/26 10:22:49;;;;;;;29.20;18.17;;;;;;;12.85;100.00;101949.44;10625788;27;20043;-59
2021/10/26 10:27:54;;;;;;;34.90;20.83;;;;;;;12.68;100.00;101955.50;10607341;27;20505;-58
2021/10/26 10:32:56;;;;;;;29.08;18.48;;;;;;;12.98;100.00;101947.91;10607119;27;20058;-60
2021/10/26 10:38:01;;;;;;;29.20;19.08;;;;;;;12.98;100.00;101958.44;10607270;27;20047;-59
2021/10/26 10:43:03;;;;;;;28.08;19.10;;;;;;;13.07;100.00;101949.25;10607121;27;20047;-59
2021/10/26 10:48:39;;;;;;;37.58;19.10;;;;;;;13.09;100.00;101951.78;10624872;27;20439;-60
2021/10/26 10:53:43;;;;;;;27.10;16.55;;;;;;;13.43;100.00;101939.59;10570816;27;20174;-58
2021/10/26 10:58:47;;;;;;;30.13;18.10;;;;;;;13.42;100.00;101951.91;10624583;27;20520;-58
2021/10/26 11:03:55;;;;;;;28.55;18.80;;;;;;;13.80;99.78;101935.06;10624222;27;20039;-59
2021/10/26 11:08:57;;;;;;;30.58;17.77;;;;;;;13.78;98.78;101947.44;10624453;27;20051;-58
2021/10/26 11:14:17;;;;;;;29.45;18.83;;;;;;;14.17;97.15;101938.34;10624382;28;20376;-58
2021/10/26 11:19:45;;;;;;;28.95;17.92;;;;;;;13.78;100.00;101940.41;10606347;28;20043;-58
2021/10/26 11:25:25;;;;;;;26.92;20.10;;;;;;;13.84;100.00;101920.81;10623938;28;20490;-59
2021/10/26 11:30:30;;;;;;;28.70;20.10;;;;;;;13.64;99.37;101922.72;10623952;28;20049;-59
2021/10/26 11:35:50;;;;;;;29.38;19.48;;;;;;;13.70;99.89;101911.88;10623782;27;20402;-58
2021/10/26 11:41:01;;;;;;;24.98;15.52;;;;;;;14.72;97.07;101901.03;10632064;27;20054;-59
2021/10/26 11:46:04;;;;;;;23.60;14.88;;;;;;;14.71;94.15;101888.81;10632424;27;20399;-58
2021/10/26 11:51:29;;;;;;;29.65;15.43;;;;;;;15.01;94.87;101896.72;10631819;27;20506;-58
2021/10/26 11:56:49;;;;;;;25.10;13.90;;;;;;;14.62;94.76;101881.44;10632042;27;20054;-59
2021/10/26 12:01:59;;;;;;;22.52;12.80;;;;;;;14.80;93.56;101890.91;10631394;27;20047;-59
2021/10/26 12:07:05;;;;;;;23.27;11.32;;;;;;;14.62;93.59;101887.53;10631355;27;20047;-59
2021/10/26 12:12:10;;;;;;;15.00;10.13;;;;;;;14.42;96.06;101893.06;10631000;27;20043;-58
2021/10/26 12:17:34;;;;;;;17.83;9.27;;;;;;;14.87;95.64;101896.69;10613342;27;20049;-58
2021/10/26 12:22:41;;;;;;;17.17;9.48;;;;;;;14.43;93.35;101900.03;10630675;27;20055;-58
2021/10/26 12:28:05;;;;;;;14.27;6.75;;;;;;;14.85;92.29;101888.84;10630854;27;20406;-59
2021/10/26 12:33:19;;;;;;;12.35;6.40;;;;;;;14.65;93.92;101886.53;10629856;27;20513;-60
2021/10/26 12:38:37;;;;;;;11.88;5.65;;;;;;;14.41;93.45;101889.59;10630582;27;20078;-58
2021/10/26 12:44:00;;;;;;;11.05;5.88;;;;;;;14.89;92.78;101883.41;10629418;27;20051;-57
2021/10/26 12:49:15;;;;;;;15.88;5.97;;;;;;;14.97;91.65;101886.44;10628598;27;20051;-59
2021/10/26 12:54:19;;;;;;;10.02;5.07;;;;;;;17.37;75.24;101871.22;10629611;27;20073;-58
2021/10/26 12:59:28;;;;;;;10.10;4.50;;;;;;;15.06;87.23;101877.97;10629330;27;20057;-59
2021/10/26 13:04:30;;;;;;;11.65;4.95;;;;;;;14.55;90.49;101882.69;10629049;27;20050;-59
2021/10/26 13:09:52;;;;;;;12.48;5.53;;;;;;;14.52;90.79;101864.41;10628709;27;20494;-58
2021/10/26 13:15:12;;;;;;;11.75;4.22;;;;;;;14.48;93.82;101869.00;10610790;27;20043;-58
2021/10/26 13:20:30;;;;;;;8.25;4.28;;;;;;;14.38;94.52;101873.09;10628326;27;20384;-59
2021/10/26 13:25:54;;;;;;;12.80;5.05;;;;;;;14.25;93.68;101871.13;10628275;27;20134;-59
2021/10/26 13:31:01;;;;;;;14.63;4.43;;;;;;;14.41;93.14;101868.50;10628085;27;20061;-58
2021/10/26 13:36:05;;;;;;;11.48;3.88;;;;;;;14.10;94.94;101874.63;10627854;27;20054;-60
2021/10/26 13:41:08;;;;;;;16.40;4.80;;;;;;;14.43;92.65;101884.22;10627248;27;20047;-59
2021/10/26 13:46:12;;;;;;;8.93;4.28;;;;;;;14.12;94.67;101899.97;10627277;27;20047;-59
2021/10/26 13:51:16;;;;;;;8.43;4.38;;;;;;;14.14;94.22;101907.78;10627723;27;20050;-58
2021/10/26 13:56:20;;;;;;;10.60;4.78;;;;;;;14.09;93.80;101917.72;10627267;27;20050;-57
2021/10/26 14:01:22;;;;;;;9.98;4.10;;;;;;;14.02;91.67;101911.06;10625880;27;20041;-58
2021/10/26 14:06:25;;;;;;;10.90;4.05;;;;;;;14.16;93.71;101903.28;10626772;27;20043;-58
2021/10/26 14:11:28;;;;;;;8.38;4.10;;;;;;;14.00;95.22;101899.75;10626303;27;20478;-59
2021/10/26 14:16:31;;;;;;;12.75;4.72;;;;;;;13.93;95.32;101912.41;10626114;27;20604;-59
2021/10/26 14:21:34;;;;;;;15.65;5.00;;;;;;;13.94;92.84;101908.84;10625739;27;20460;-59
2021/10/26 14:26:36;;;;;;;14.05;4.20;;;;;;;14.14;93.46;101907.78;10626253;27;20058;-60
2021/10/26 14:31:40;;;;;;;11.60;4.93;;;;;;;14.10;92.41;101904.47;10625671;27;20039;-58
2021/10/26 14:36:56;;;;;;;13.50;4.57;;;;;;;14.03;89.51;101897.81;10607303;27;20043;-58
2021/10/26 14:58:02;;;;;;;8.25;4.50;;;;;;;13.81;90.32;101924.44;10452610;28;20049;-59
2021/10/26 15:03:04;;;;;;;6.90;4.32;;;;;;;13.84;90.35;101937.44;10586589;27;20130;-57
2021/10/26 15:08:08;;;;;;;7.55;5.38;;;;;;;13.53;91.75;101943.47;10624622;27;20057;-60
2021/10/26 15:13:20;;;;;;;11.75;5.00;;;;;;;13.65;89.81;101939.34;10623465;27;20058;-58
2021/10/26 15:18:23;;;;;;;11.52;4.85;;;;;;;13.41;92.33;101942.31;10625301;28;20040;-59
2021/10/26 15:23:41;;;;;;;7.38;4.90;;;;;;;13.44;91.15;101930.78;10623933;28;20130;-59
2021/10/26 15:34:21;;;;;;;6.15;4.80;;;;;;;13.33;91.67;101937.47;10499213;28;20438;-58
2021/10/26 15:39:24;;;;;;;7.43;5.03;;;;;;;13.22;91.00;101936.25;10623753;28;20063;-58
2021/10/26 15:44:27;;;;;;;8.00;5.18;;;;;;;13.21;91.75;101945.91;10624094;28;20136;-58
2021/10/26 15:49:29;;;;;;;6.35;5.32;;;;;;;12.86;93.32;101940.66;10623430;28;20051;-57
2021/10/26 15:54:32;;;;;;;6.53;5.57;;;;;;;13.02;93.59;101940.72;10623530;28;20080;-59
2021/10/26 15:59:39;;;;;;;10.57;6.80;;;;;;;12.88;94.62;101946.69;10623594;28;20058;-58
2021/10/26 16:04:51;;;;;;;11.13;5.85;;;;;;;13.10;94.50;101945.63;10623662;28;20053;-58
2021/10/26 16:10:01;;;;;;;10.48;5.38;;;;;;;13.09;93.90;101952.63;10623435;28;20043;-58
2021/10/26 16:20:13;;;;;;;9.23;5.18;;;;;;;12.67;99.61;101963.47;10623046;28;20384;-60
2021/10/26 16:25:16;;;;;;;9.25;6.50;;;;;;;12.28;100.00;101978.38;10628765;27;20130;-58
2021/10/26 16:30:19;;;;;;;12.23;7.00;;;;;;;12.24;100.00;101975.06;10630454;27;20046;-60
2021/10/26 16:35:21;;;;;;;9.95;6.07;;;;;;;12.52;100.00;101973.75;10630377;27;20047;-59
2021/10/26 16:40:25;;;;;;;15.52;7.18;;;;;;;12.14;100.00;101983.41;10629702;27;20380;-57
2021/10/26 16:50:37;;;;;;;17.70;7.22;;;;;;;12.48;100.00;101992.41;10630057;27;20043;-58
2021/10/26 16:55:40;;;;;;;9.40;6.72;;;;;;;12.01;100.00;101994.47;10629867;27;20094;-59
2021/10/26 17:00:49;;;;;;;11.55;6.57;;;;;;;12.33;100.00;101997.41;10629113;27;20050;-59
2021/10/26 17:05:51;;;;;;;11.98;6.88;;;;;;;12.01;100.00;101998.88;10629207;27;20075;-58
2021/10/26 17:10:54;;;;;;;11.38;6.90;;;;;;;12.01;100.00;102001.50;10628617;27;20399;-59
2021/10/26 17:15:58;;;;;;;15.82;6.68;;;;;;;11.87;100.00;102010.78;10628658;27;20051;-58
2021/10/26 17:21:00;;;;;;;11.25;5.28;;;;;;;12.12;100.00;102004.50;10628305;27;20045;-58
2021/10/26 17:26:04;;;;;;;7.28;5.22;;;;;;;12.21;100.00;102004.06;10627867;27;20425;-58
2021/10/26 17:31:07;;;;;;;11.50;6.40;;;;;;;12.08;100.00;101997.66;10627911;27;20051;-58
2021/10/26 17:36:14;;;;;;;12.07;5.97;;;;;;;11.94;100.00;101990.41;10627582;27;20043;-58
2021/10/26 17:41:38;;;;;;;10.18;5.57;;;;;;;12.01;100.00;102010.22;10627732;27;20058;-60
2021/10/26 17:46:46;;;;;;;13.77;6.03;;;;;;;12.07;100.00;102011.72;10627877;27;20096;-59
2021/10/26 17:51:50;;;;;;;11.93;5.70;;;;;;;12.29;100.00;102013.38;10627200;27;20043;-59
2021/10/26 17:56:53;;;;;;;13.07;5.55;;;;;;;12.17;100.00;102013.03;10609246;27;20513;-58
2021/10/26 18:01:56;;;;;;;9.32;5.25;;;;;;;11.99;100.00;102003.34;10626870;27;20039;-58
2021/10/26 18:06:59;;;;;;;14.45;5.72;;;;;;;12.08;100.00;101997.66;10626557;27;20047;-59
2021/10/26 18:12:03;;;;;;;12.25;4.55;;;;;;;12.06;100.00;101997.72;10626290;27;20039;-57
2021/10/26 18:17:05;;;;;;;9.50;4.60;;;;;;;12.24;100.00;102001.31;10626431;27;20051;-57
2021/10/26 18:22:08;;;;;;;10.02;4.25;;;;;;;12.17;100.00;102004.28;10626242;27;20047;-58
2021/10/26 18:27:14;;;;;;;7.60;4.25;;;;;;;12.22;100.00;102008.41;10625671;27;20066;-58
2021/10/26 18:32:16;;;;;;;10.18;4.80;;;;;;;12.04;100.00;102012.69;10626177;27;20054;-58
2021/10/26 18:37:18;;;;;;;11.70;4.53;;;;;;;12.12;100.00;102024.63;10625695;27;20058;-58
2021/10/26 18:42:32;;;;;;;10.88;5.15;;;;;;;12.23;100.00;102030.25;10625050;27;20055;-56
2021/10/26 18:47:34;;;;;;;11.52;4.05;;;;;;;12.21;100.00;102032.94;10625388;27;20051;-59
2021/10/26 18:52:37;;;;;;;10.55;4.20;;;;;;;12.32;100.00;102029.00;10624835;27;20486;-58
2021/10/26 18:57:40;;;;;;;14.55;4.72;;;;;;;12.16;100.00;102023.59;10624697;27;20406;-58
2021/10/26 19:02:43;;;;;;;10.68;4.53;;;;;;;12.25;100.00;102016.16;10624730;27;20075;-59
2021/10/26 19:07:46;;;;;;;11.45;4.68;;;;;;;12.22;100.00;102010.16;10624930;27;20047;-59
2021/10/26 19:12:48;;;;;;;12.23;5.75;;;;;;;12.11;100.00;102010.66;10606377;28;20047;-59
2021/10/26 19:17:50;;;;;;;10.68;6.57;;;;;;;12.11;100.00;102013.28;10624317;28;20047;-58
2021/10/26 19:22:53;;;;;;;14.27;5.93;;;;;;;11.95;100.00;102014.88;10624281;28;20039;-59
2021/10/26 19:27:56;;;;;;;10.45;5.53;;;;;;;12.23;100.00;102022.38;10624069;28;20395;-58
2021/10/26 19:32:59;;;;;;;13.32;6.97;;;;;;;12.01;100.00;102020.72;10624172;28;20058;-58
2021/10/26 19:38:02;;;;;;;12.00;7.30;;;;;;;12.13;100.00;102028.97;10623964;28;20062;-58
2021/10/26 19:43:04;;;;;;;9.13;6.55;;;;;;;12.17;100.00;102015.66;10623684;28;20078;-58
2021/10/26 19:48:11;;;;;;;13.02;6.90;;;;;;;12.15;100.00;102024.50;10624088;28;20047;-59
2021/10/26 19:53:13;;;;;;;22.65;8.27;;;;;;;11.95;100.00;102015.72;10623604;28;20043;-58
2021/10/26 19:58:15;;;;;;;22.98;7.57;;;;;;;12.05;100.00;102032.78;10626109;27;20058;-59
2021/10/26 20:03:24;;;;;;;14.15;8.43;;;;;;;12.10;100.00;102037.81;10632079;27;20054;-60
2021/10/26 20:08:27;;;;;;;11.68;8.15;;;;;;;12.22;100.00;102028.53;10631288;27;20047;-59
2021/10/26 20:13:29;;;;;;;12.60;7.70;;;;;;;12.15;100.00;102033.22;10631149;27;20475;-61
2021/10/26 20:18:32;;;;;;;14.75;8.63;;;;;;;12.15;100.00;102041.09;10631765;27;20062;-59
2021/10/26 20:28:39;;;;;;;10.90;7.82;;;;;;;12.07;100.00;102043.22;10630583;27;20051;-59
2021/10/26 20:33:42;;;;;;;12.27;8.68;;;;;;;12.14;100.00;102035.91;10630512;27;20146;-60
2021/10/26 20:38:45;;;;;;;14.13;8.98;;;;;;;12.15;100.00;102045.50;10629977;27;20391;-59
2021/10/26 20:43:48;;;;;;;15.25;10.52;;;;;;;12.17;100.00;102059.41;10629735;27;20543;-59
2021/10/26 20:48:50;;;;;;;21.63;10.70;;;;;;;12.06;100.00;102065.13;10629864;27;20043;-58
2021/10/26 20:54:00;;;;;;;13.82;10.43;;;;;;;12.04;100.00;102057.31;10629474;27;20498;-59
2021/10/26 20:59:02;;;;;;;15.05;9.57;;;;;;;12.13;100.00;102063.09;10629624;27;20055;-59
2021/10/26 21:04:09;;;;;;;16.20;12.38;;;;;;;11.99;100.00;102061.09;10629153;27;20050;-59
2021/10/26 21:09:11;;;;;;;16.20;11.10;;;;;;;12.25;100.00;102067.81;10627715;27;20483;-59
2021/10/26 21:14:14;;;;;;;15.05;10.73;;;;;;;12.25;100.00;102065.19;10628894;27;20043;-58
2021/10/26 21:19:17;;;;;;;25.02;15.68;;;;;;;12.18;100.00;102061.13;10629046;27;20062;-60
2021/10/26 21:24:19;;;;;;;18.42;13.40;;;;;;;12.19;100.00;102071.56;10628306;27;20505;-58
2021/10/26 21:29:21;;;;;;;18.67;12.48;;;;;;;12.33;100.00;102065.69;10627754;27;20059;-58
2021/10/26 21:34:31;;;;;;;21.80;13.93;;;;;;;12.27;100.00;102079.97;10628234;27;20043;-57
2021/10/26 21:39:34;;;;;;;22.08;13.48;;;;;;;12.37;100.00;102061.16;10628040;27;20050;-59
2021/10/26 21:44:36;;;;;;;34.80;15.70;;;;;;;12.17;100.00;102064.66;10628091;27;20047;-58
2021/10/26 21:49:40;;;;;;;23.52;16.13;;;;;;;12.14;100.00;102062.16;10627358;27;20402;-60
2021/10/26 21:54:42;;;;;;;16.98;13.32;;;;;;;12.28;100.00;102065.03;10627272;27;20055;-59
2021/10/26 21:59:45;;;;;;;22.48;15.38;;;;;;;12.09;100.00;102051.88;10627132;27;20043;-60
2021/10/26 22:04:48;;;;;;;23.65;16.25;;;;;;;12.05;100.00;102059.03;10627290;27;20047;-58
2021/10/26 22:09:50;;;;;;;25.02;16.10;;;;;;;12.08;100.00;102055.41;10626394;27;20087;-59
2021/10/26 22:14:53;;;;;;;26.08;16.92;;;;;;;12.20;100.00;102061.91;10626466;27;20047;-58
2021/10/26 22:19:56;;;;;;;21.48;16.63;;;;;;;12.30;100.00;102057.94;10625619;27;20513;-57
2021/10/26 22:24:58;;;;;;;22.38;16.77;;;;;;;12.34;100.00;102066.53;10625876;27;20050;-59
2021/10/26 22:30:01;;;;;;;23.33;17.60;;;;;;;12.25;100.00;102070.44;10625572;27;20047;-61
2021/10/26 22:35:04;;;;;;;20.00;15.20;;;;;;;12.41;100.00;102068.00;10625638;27;20046;-59
2021/10/26 22:40:07;;;;;;;25.15;16.88;;;;;;;12.35;100.00;102070.88;10625130;27;20046;-59
2021/10/26 22:45:10;;;;;;;21.83;16.80;;;;;;;12.41;100.00;102046.97;10625145;27;20057;-59
2021/10/26 22:50:14;;;;;;;31.20;19.80;;;;;;;12.37;100.00;102055.91;10625073;27;20053;-56
2021/10/26 22:55:16;;;;;;;23.92;17.00;;;;;;;12.34;100.00;102070.03;10625229;27;20050;-59
2021/10/26 23:00:19;;;;;;;25.17;18.83;;;;;;;12.44;100.00;102058.19;10624603;27;20046;-60
2021/10/26 23:05:23;;;;;;;16.50;14.10;;;;;;;12.50;100.00;102061.47;10624539;27;20395;-58
2021/10/26 23:10:25;;;;;;;18.70;15.18;;;;;;;12.45;100.00;102064.28;10606764;27;20058;-58
2021/10/26 23:15:28;;;;;;;22.30;17.17;;;;;;;12.35;100.00;102066.47;10624703;28;20055;-59
2021/10/26 23:20:31;;;;;;;30.10;18.90;;;;;;;12.44;100.00;102071.31;10606191;28;20050;-58
2021/10/26 23:25:33;;;;;;;31.13;21.52;;;;;;;12.27;100.00;102073.84;10624181;28;20043;-59
2021/10/26 23:30:36;;;;;;;22.85;16.48;;;;;;;12.43;100.00;102069.59;10624047;28;20054;-58
2021/10/26 23:35:38;;;;;;;25.25;16.95;;;;;;;12.48;100.00;102073.81;10630987;27;20047;-59
2021/10/26 23:40:41;;;;;;;22.80;18.20;;;;;;;12.47;100.00;102061.59;10632367;27;20047;-57